Time;durP1;ratioP1;P1;durP2;ratioP2;P2;SDS_P1;SDS_P2;PMS_P1;PMS_P2;Temp;Humidity;BMP_temperature;BMP_pressure;BME280_temperature;BME280_humidity;BME280_pressure;Samples;Min_cycle;Max_cycle;Signal;HPM_P1;HPM_P2
2024/02/07 00:00:28;;;;;;;5.82;1.88;;;7.50;62.60;;;;;;4975694;28;20483;-73
2024/02/07 00:02:53;;;;;;;5.43;2.15;;;7.50;63.00;;;;;;4975278;28;20031;-73
2024/02/07 00:05:19;;;;;;;5.25;2.00;;;7.40;63.50;;;;;;4975120;28;20050;-74
2024/02/07 00:07:45;;;;;;;7.53;2.05;;;7.40;63.50;;;;;;4975203;28;20094;-73
2024/02/07 00:10:11;;;;;;;8.32;2.40;;;7.40;64.00;;;;;;4973908;28;20027;-72
2024/02/07 00:12:37;;;;;;;3.35;1.98;;;7.40;64.10;;;;;;4975214;28;20038;-72
2024/02/07 00:15:04;;;;;;;4.65;1.98;;;7.20;64.50;;;;;;4974984;28;20039;-72
2024/02/07 00:17:30;;;;;;;6.72;1.92;;;7.10;65.20;;;;;;4975187;28;20027;-73
2024/02/07 00:19:56;;;;;;;6.15;2.30;;;7.10;65.50;;;;;;4975017;28;20045;-72
2024/02/07 00:22:21;;;;;;;8.10;1.63;;;7.10;65.80;;;;;;4974600;28;20050;-72
2024/02/07 00:24:47;;;;;;;4.72;2.03;;;7.10;66.00;;;;;;4974869;28;20041;-72
2024/02/07 00:27:12;;;;;;;7.22;2.90;;;7.00;66.40;;;;;;4974922;28;20464;-72
2024/02/07 00:29:38;;;;;;;6.32;2.28;;;7.00;66.70;;;;;;4973553;28;20042;-71
2024/02/07 00:32:04;;;;;;;5.72;2.10;;;7.00;66.90;;;;;;4974848;28;20034;-72
2024/02/07 00:34:29;;;;;;;7.78;2.28;;;7.00;66.80;;;;;;4957346;28;20027;-71
2024/02/07 00:36:55;;;;;;;5.82;2.00;;;7.00;67.00;;;;;;4974757;28;20110;-72
2024/02/07 00:39:20;;;;;;;14.43;3.03;;;7.00;67.40;;;;;;4974682;28;20435;-74
2024/02/07 00:41:46;;;;;;;10.07;2.50;;;6.90;67.80;;;;;;4974667;28;20057;-72
2024/02/07 00:44:11;;;;;;;10.77;3.13;;;6.80;68.00;;;;;;4974499;28;20105;-72
2024/02/07 00:46:38;;;;;;;6.57;2.65;;;6.80;68.30;;;;;;4974538;28;20031;-72
2024/02/07 00:49:04;;;;;;;6.60;2.15;;;6.70;68.50;;;;;;4974569;28;20023;-74
2024/02/07 00:51:30;;;;;;;8.10;2.85;;;6.70;68.90;;;;;;4974610;28;20027;-71
2024/02/07 00:53:56;;;;;;;6.60;2.58;;;6.70;69.20;;;;;;4974397;28;20030;-72
2024/02/07 00:56:21;;;;;;;9.80;3.03;;;6.70;69.30;;;;;;4974505;28;20417;-71
2024/02/07 00:58:47;;;;;;;7.88;3.47;;;6.70;69.60;;;;;;4974329;28;20106;-71
2024/02/07 01:01:13;;;;;;;8.52;2.35;;;6.70;69.60;;;;;;4974392;28;20018;-71
2024/02/07 01:03:38;;;;;;;11.90;3.35;;;6.80;69.50;;;;;;4974228;28;20321;-71
2024/02/07 01:06:04;;;;;;;6.57;3.03;;;6.80;69.40;;;;;;4974274;28;20054;-71
2024/02/07 01:08:30;;;;;;;7.72;2.85;;;6.80;69.30;;;;;;4974304;28;20081;-72
2024/02/07 01:10:55;;;;;;;7.40;2.63;;;6.80;69.60;;;;;;4974157;28;20058;-72
2024/02/07 01:13:21;;;;;;;6.15;2.70;;;6.80;69.60;;;;;;4974219;28;20108;-71
2024/02/07 01:15:47;;;;;;;7.00;2.72;;;6.80;69.70;;;;;;4974265;28;20264;-72
2024/02/07 01:18:13;;;;;;;7.15;2.80;;;6.80;69.70;;;;;;4974438;28;20031;-71
2024/02/07 01:20:38;;;;;;;7.32;2.70;;;6.80;69.60;;;;;;4974143;28;20539;-71
2024/02/07 01:23:04;;;;;;;6.18;2.88;;;6.80;69.80;;;;;;4974046;28;20037;-72
2024/02/07 01:25:30;;;;;;;5.60;2.60;;;6.80;70.20;;;;;;4974147;28;20097;-73
2024/02/07 01:27:55;;;;;;;5.75;3.45;;;6.80;70.10;;;;;;4974174;28;20022;-75
2024/02/07 01:30:21;;;;;;;8.13;2.97;;;6.80;70.00;;;;;;4973877;28;20507;-73
2024/02/07 01:32:47;;;;;;;6.57;3.15;;;6.90;70.10;;;;;;4974117;28;20062;-74
2024/02/07 01:35:15;;;;;;;10.32;3.10;;;6.90;70.10;;;;;;4975472;28;20476;-75
2024/02/07 01:37:42;;;;;;;10.52;3.17;;;6.90;69.90;;;;;;4976805;28;20022;-74
2024/02/07 01:40:10;;;;;;;6.35;3.00;;;6.90;69.90;;;;;;4978031;28;20112;-74
2024/02/07 01:42:36;;;;;;;8.02;3.22;;;7.00;69.80;;;;;;4960508;28;20036;-74
2024/02/07 01:45:31;;;;;;;9.27;2.95;;;7.00;69.60;;;;;;4977835;28;20384;-74
2024/02/07 01:47:57;;;;;;;6.97;2.55;;;7.00;69.70;;;;;;4977908;28;20023;-74
2024/02/07 01:50:23;;;;;;;7.78;3.13;;;7.00;69.70;;;;;;4977616;28;20039;-73
2024/02/07 01:52:52;;;;;;;7.85;3.10;;;6.90;69.90;;;;;;4960333;28;20392;-75
2024/02/07 01:55:18;;;;;;;5.13;2.65;;;6.90;69.90;;;;;;4977896;28;20023;-73
2024/02/07 01:57:44;;;;;;;7.07;2.63;;;6.90;70.10;;;;;;4977641;28;20027;-75
2024/02/07 02:00:11;;;;;;;8.23;3.00;;;6.90;70.10;;;;;;4977667;28;20101;-75
2024/02/07 02:02:38;;;;;;;7.57;3.15;;;6.90;69.90;;;;;;4977395;28;20121;-73
2024/02/07 02:05:04;;;;;;;6.03;2.85;;;7.00;69.90;;;;;;4977500;28;20035;-75
2024/02/07 02:07:30;;;;;;;6.88;2.95;;;7.00;69.70;;;;;;4977571;28;20034;-73
2024/02/07 02:09:56;;;;;;;6.38;2.47;;;7.00;69.60;;;;;;4977348;28;20388;-72
2024/02/07 02:12:22;;;;;;;5.57;2.78;;;7.00;69.50;;;;;;4977343;28;20030;-72
2024/02/07 02:14:49;;;;;;;7.47;3.33;;;7.10;69.40;;;;;;4977027;28;20494;-71
2024/02/07 02:17:14;;;;;;;4.38;2.45;;;7.10;69.20;;;;;;4959962;28;20027;-71
2024/02/07 02:19:40;;;;;;;4.43;2.80;;;7.10;69.20;;;;;;4977233;28;20396;-72
2024/02/07 02:22:23;;;;;;;8.20;3.15;;;7.20;69.10;;;;;;4977245;28;20023;-73
2024/02/07 02:25:26;;;;;;;9.60;2.90;;;7.20;69.00;;;;;;4977372;28;20070;-72
2024/02/07 02:28:27;;;;;;;5.13;2.75;;;7.10;69.20;;;;;;4977184;28;20031;-71
2024/02/07 02:30:58;;;;;;;6.15;3.13;;;7.10;69.20;;;;;;4977584;28;20369;-72
2024/02/07 02:33:27;;;;;;;7.47;3.20;;;7.10;69.00;;;;;;4977137;28;20495;-72
2024/02/07 02:35:53;;;;;;;6.65;3.00;;;7.20;68.80;;;;;;4976898;28;20039;-71
2024/02/07 02:38:20;;;;;;;6.00;3.15;;;7.20;68.80;;;;;;4977077;28;20077;-71
2024/02/07 02:40:48;;;;;;;5.20;2.00;;;7.20;68.90;;;;;;4976995;28;20023;-72
2024/02/07 02:43:13;;;;;;;7.35;2.60;;;7.20;69.10;;;;;;4976870;28;20109;-70
2024/02/07 02:45:39;;;;;;;6.35;2.38;;;7.20;68.90;;;;;;4959075;28;20170;-72
2024/02/07 02:48:05;;;;;;;8.93;2.83;;;7.20;68.80;;;;;;4976843;28;20169;-71
2024/02/07 02:50:32;;;;;;;6.55;2.85;;;7.30;68.80;;;;;;4976804;28;20535;-71
2024/02/07 02:52:58;;;;;;;8.57;3.38;;;7.30;68.90;;;;;;4977143;28;20031;-71
2024/02/07 02:55:24;;;;;;;6.40;2.92;;;7.30;68.50;;;;;;4976716;28;20026;-71
2024/02/07 02:57:50;;;;;;;9.23;3.17;;;7.30;68.50;;;;;;4976685;28;20550;-72
2024/02/07 03:00:20;;;;;;;6.22;2.60;;;7.40;68.40;;;;;;4976538;28;20105;-71
2024/02/07 03:02:46;;;;;;;9.73;3.05;;;7.40;68.20;;;;;;4976397;28;20023;-71
2024/02/07 03:08:15;;;;;;;4.00;2.13;;;7.50;67.70;;;;;;4976664;28;20033;-71
2024/02/07 03:10:42;;;;;;;5.75;2.65;;;7.50;67.60;;;;;;4958847;28;20027;-71
2024/02/07 03:13:08;;;;;;;7.85;2.70;;;7.60;67.50;;;;;;4976341;28;20018;-71
2024/02/07 03:15:34;;;;;;;6.32;3.15;;;7.60;67.30;;;;;;4976190;28;20046;-71
2024/02/07 03:18:00;;;;;;;11.20;3.22;;;7.60;67.30;;;;;;4976262;28;20030;-72
2024/02/07 03:20:26;;;;;;;4.82;2.90;;;7.50;67.50;;;;;;4976298;28;20391;-72
2024/02/07 03:22:51;;;;;;;6.35;2.72;;;7.50;68.60;;;;;;4976221;28;20019;-72
2024/02/07 03:25:17;;;;;;;5.13;2.60;;;7.50;67.60;;;;;;4976057;28;20035;-72
2024/02/07 03:27:49;;;;;;;7.47;2.92;;;7.50;67.60;;;;;;4976183;28;20423;-72
2024/02/07 03:30:16;;;;;;;7.15;2.90;;;7.60;67.10;;;;;;4976152;28;20027;-72
2024/02/07 03:32:42;;;;;;;6.15;2.58;;;7.60;67.20;;;;;;4976067;28;20023;-73
2024/02/07 03:35:09;;;;;;;4.18;2.55;;;7.60;67.40;;;;;;4976095;28;20106;-72
2024/02/07 03:37:35;;;;;;;4.85;2.58;;;7.60;67.50;;;;;;4975868;28;20447;-72
2024/02/07 03:40:01;;;;;;;11.40;2.70;;;7.60;67.50;;;;;;4975755;28;20143;-72
2024/02/07 03:42:26;;;;;;;7.85;2.35;;;7.60;67.70;;;;;;4975723;28;20030;-72
2024/02/07 03:44:59;;;;;;;10.27;2.83;;;7.60;67.60;;;;;;4958143;28;20105;-73
2024/02/07 03:47:24;;;;;;;5.13;2.20;;;7.60;67.70;;;;;;4975676;28;20085;-72
2024/02/07 03:49:53;;;;;;;8.00;2.47;;;7.60;67.70;;;;;;4958109;28;20476;-72
2024/02/07 03:52:19;;;;;;;5.88;2.85;;;7.60;67.60;;;;;;4975612;28;20314;-72
2024/02/07 03:54:51;;;;;;;5.07;2.20;;;7.60;67.70;;;;;;4975820;28;20077;-72
2024/02/07 03:57:20;;;;;;;3.80;2.03;;;7.60;67.80;;;;;;4957246;28;20031;-72
2024/02/07 03:59:50;;;;;;;8.15;2.65;;;7.60;67.90;;;;;;4975428;28;20030;-73
2024/02/07 04:02:22;;;;;;;5.40;2.50;;;7.50;68.00;;;;;;4975409;28;20054;-72
2024/02/07 04:04:51;;;;;;;5.25;2.60;;;7.50;68.20;;;;;;4975337;28;20094;-73
2024/02/07 04:07:23;;;;;;;6.72;2.70;;;7.50;68.20;;;;;;4975316;28;20437;-72
2024/02/07 04:09:49;;;;;;;5.25;2.63;;;7.50;68.10;;;;;;4975263;28;20480;-73
2024/02/07 05:17:19;;;;;;;7.63;2.40;;;7.70;67.70;;;;;;4973990;28;20049;-72
2024/02/07 05:19:45;;;;;;;5.68;2.70;;;7.70;67.70;;;;;;4974140;28;20047;-72
2024/02/07 05:22:11;;;;;;;8.38;2.92;;;7.70;67.80;;;;;;4974066;28;20035;-72
2024/02/07 05:24:38;;;;;;;6.25;2.50;;;7.70;67.80;;;;;;4974172;28;20043;-72
2024/02/07 05:27:06;;;;;;;4.43;2.47;;;7.80;67.50;;;;;;4974247;28;20053;-72
2024/02/07 05:29:32;;;;;;;7.55;2.58;;;7.80;67.20;;;;;;4956559;28;20034;-72
2024/02/07 05:31:58;;;;;;;9.50;2.88;;;7.80;67.30;;;;;;4974002;28;20126;-73
2024/02/07 05:34:24;;;;;;;7.28;2.78;;;7.90;67.10;;;;;;4974117;28;20488;-72
2024/02/07 05:36:49;;;;;;;6.70;2.63;;;7.90;67.00;;;;;;4974007;28;20034;-73
2024/02/07 05:39:15;;;;;;;6.18;2.55;;;7.90;67.50;;;;;;4973847;28;20388;-73
2024/02/07 05:41:43;;;;;;;6.30;2.50;;;7.90;67.30;;;;;;4973903;28;20026;-72
2024/02/07 05:44:09;;;;;;;4.53;2.40;;;7.90;67.40;;;;;;4973714;28;20035;-71
2024/02/07 05:46:36;;;;;;;9.43;2.90;;;7.90;67.30;;;;;;4973964;28;20106;-76
2024/02/07 05:49:01;;;;;;;10.98;3.03;;;7.90;67.30;;;;;;4973872;28;20476;-76
2024/02/07 05:51:27;;;;;;;6.90;2.78;;;7.90;67.20;;;;;;4973755;28;20038;-76
2024/02/07 05:53:53;;;;;;;4.97;2.30;;;7.90;67.50;;;;;;4974001;28;20575;-76
2024/02/07 05:56:19;;;;;;;8.52;2.65;;;7.90;67.50;;;;;;4974276;28;20030;-76
2024/02/07 05:58:47;;;;;;;7.60;2.38;;;7.90;67.50;;;;;;4973809;28;20031;-76
2024/02/07 06:01:13;;;;;;;8.85;2.08;;;7.90;67.40;;;;;;4974011;28;20031;-76
2024/02/07 06:03:39;;;;;;;8.68;2.38;;;7.90;67.30;;;;;;4956136;28;20042;-75
2024/02/07 06:06:06;;;;;;;6.10;2.42;;;7.90;67.20;;;;;;4973613;28;20034;-75
2024/02/07 06:08:33;;;;;;;9.93;2.72;;;7.90;68.00;;;;;;4973504;28;20023;-73
2024/02/07 06:10:59;;;;;;;7.63;2.80;;;7.80;67.40;;;;;;4973992;28;20031;-76
2024/02/07 06:13:25;;;;;;;8.15;3.08;;;7.80;67.20;;;;;;4973587;28;20030;-74
2024/02/07 06:15:50;;;;;;;5.03;2.75;;;7.90;67.40;;;;;;4973279;28;20058;-75
2024/02/07 06:18:19;;;;;;;4.90;2.78;;;7.90;67.20;;;;;;4973373;28;20038;-76
2024/02/07 06:20:44;;;;;;;13.43;3.10;;;7.90;68.10;;;;;;4974072;28;20023;-75
2024/02/07 06:23:10;;;;;;;5.05;2.35;;;7.90;67.60;;;;;;4977308;28;20035;-75
2024/02/07 06:25:35;;;;;;;5.93;2.65;;;7.80;67.70;;;;;;4959578;28;20027;-73
2024/02/07 06:28:01;;;;;;;6.15;2.85;;;7.80;67.60;;;;;;4976901;28;20027;-72
2024/02/07 06:30:26;;;;;;;4.90;2.42;;;7.90;67.60;;;;;;4976903;28;20030;-75
2024/02/07 06:32:52;;;;;;;6.88;2.80;;;7.90;67.70;;;;;;4976747;28;20035;-74
2024/02/07 06:35:18;;;;;;;8.30;3.15;;;7.90;67.60;;;;;;4959576;28;20039;-74
2024/02/07 06:37:44;;;;;;;8.02;2.72;;;7.80;67.80;;;;;;4976900;28;20070;-74
2024/02/07 06:40:11;;;;;;;9.55;2.58;;;7.90;67.90;;;;;;4977231;28;20030;-72
2024/02/07 06:42:36;;;;;;;7.25;2.83;;;7.90;67.80;;;;;;4976877;28;20034;-72
2024/02/07 06:45:03;;;;;;;7.97;2.92;;;7.90;67.70;;;;;;4976514;28;20047;-75
2024/02/07 06:47:28;;;;;;;5.43;2.53;;;7.90;67.70;;;;;;4976551;28;20387;-74
2024/02/07 06:49:54;;;;;;;8.77;2.97;;;7.90;67.70;;;;;;4976427;28;20022;-73
2024/02/07 06:52:19;;;;;;;6.88;3.00;;;7.90;67.80;;;;;;4992752;28;20032;-72
2024/02/07 06:54:45;;;;;;;7.60;2.83;;;7.90;67.90;;;;;;4996056;28;20018;-73
2024/02/07 06:57:11;;;;;;;6.63;2.80;;;8.00;67.90;;;;;;4978451;28;20364;-73
2024/02/07 06:59:37;;;;;;;10.80;3.78;;;8.00;68.00;;;;;;4995707;28;20046;-73
2024/02/07 07:02:02;;;;;;;10.45;2.95;;;8.00;68.00;;;;;;4978384;28;20035;-74
2024/02/07 07:04:28;;;;;;;12.05;3.65;;;7.90;68.10;;;;;;4995691;28;20042;-76
2024/02/07 07:06:53;;;;;;;8.07;3.30;;;8.00;68.30;;;;;;4996068;28;20098;-74
2024/02/07 07:09:19;;;;;;;6.28;3.17;;;8.00;68.30;;;;;;4995629;28;20435;-72
2024/02/07 07:11:45;;;;;;;12.07;3.05;;;7.90;68.60;;;;;;4995296;28;20030;-72
2024/02/07 07:14:10;;;;;;;9.98;3.45;;;7.90;68.80;;;;;;4995524;28;20057;-72
2024/02/07 07:16:36;;;;;;;11.27;3.70;;;7.90;69.10;;;;;;4995150;28;20456;-72
2024/02/07 07:19:02;;;;;;;9.48;3.28;;;7.90;69.00;;;;;;4995651;28;20030;-73
2024/02/07 07:21:28;;;;;;;9.45;3.03;;;7.90;68.90;;;;;;4995457;28;20109;-72
2024/02/07 07:23:54;;;;;;;9.13;3.03;;;7.90;69.00;;;;;;4995415;28;20077;-72
2024/02/07 07:26:19;;;;;;;8.00;3.20;;;7.90;69.20;;;;;;4995096;28;20081;-72
2024/02/07 07:28:45;;;;;;;11.32;3.60;;;7.90;69.70;;;;;;4995447;28;20046;-72
2024/02/07 07:31:10;;;;;;;11.30;3.33;;;7.90;69.80;;;;;;4995055;28;20150;-72
2024/02/07 07:33:36;;;;;;;10.75;4.05;;;7.80;69.60;;;;;;4993865;28;20023;-72
2024/02/07 07:36:01;;;;;;;10.35;4.35;;;7.80;69.70;;;;;;4995265;28;20046;-72
2024/02/07 07:38:27;;;;;;;9.07;4.40;;;7.90;69.60;;;;;;4995235;28;20062;-73
2024/02/07 07:40:52;;;;;;;8.48;3.65;;;7.90;69.40;;;;;;4995197;28;20089;-74
2024/02/07 07:43:19;;;;;;;8.38;3.40;;;7.90;69.40;;;;;;4994846;28;20030;-72
2024/02/07 07:45:44;;;;;;;8.88;3.45;;;7.90;69.50;;;;;;4995109;28;20035;-73
2024/02/07 07:48:10;;;;;;;11.20;3.83;;;7.90;69.40;;;;;;4994800;28;20503;-71
2024/02/07 07:50:35;;;;;;;10.02;3.55;;;7.90;69.30;;;;;;4994762;28;20034;-72
2024/02/07 07:53:01;;;;;;;9.48;3.40;;;7.90;69.40;;;;;;4994978;28;20073;-74
2024/02/07 07:55:26;;;;;;;10.30;3.95;;;7.90;70.00;;;;;;4994933;28;20065;-73
2024/02/07 07:57:52;;;;;;;7.80;3.30;;;7.90;70.20;;;;;;4977461;28;20034;-75
2024/02/07 08:00:18;;;;;;;7.68;3.25;;;8.00;69.70;;;;;;4995082;28;20029;-74
2024/02/07 08:02:43;;;;;;;8.63;3.67;;;8.00;69.50;;;;;;4994599;28;20049;-73
2024/02/07 08:05:09;;;;;;;6.63;3.30;;;8.10;69.20;;;;;;4994632;28;20041;-74
2024/02/07 08:07:34;;;;;;;8.13;3.50;;;8.10;69.10;;;;;;4994453;28;20539;-73
2024/02/07 08:10:00;;;;;;;7.72;3.25;;;8.00;68.90;;;;;;4994513;28;20034;-71
2024/02/07 08:12:25;;;;;;;9.50;3.05;;;8.00;68.70;;;;;;4994166;28;20029;-74
2024/02/07 08:14:51;;;;;;;9.02;2.95;;;8.10;68.60;;;;;;4976681;28;20384;-73
2024/02/07 08:17:18;;;;;;;10.65;3.28;;;8.20;69.00;;;;;;4994083;28;20034;-74
2024/02/07 08:19:46;;;;;;;6.10;3.00;;;8.20;67.70;;;;;;4976850;28;20071;-73
2024/02/07 08:22:11;;;;;;;9.07;3.35;;;8.20;68.30;;;;;;4976689;28;20506;-72
2024/02/07 08:24:37;;;;;;;9.23;3.00;;;8.30;68.50;;;;;;4994126;28;20042;-73
2024/02/07 08:27:02;;;;;;;4.57;2.30;;;8.30;68.50;;;;;;4993963;28;20487;-74
2024/02/07 08:29:29;;;;;;;7.88;3.08;;;8.30;67.70;;;;;;4994123;28;20109;-74
2024/02/07 08:31:56;;;;;;;6.28;3.05;;;8.40;67.70;;;;;;4976734;28;20026;-73
2024/02/07 08:34:21;;;;;;;9.73;3.35;;;8.40;67.70;;;;;;4994024;28;20112;-73
2024/02/07 08:36:47;;;;;;;6.90;3.00;;;8.40;67.60;;;;;;4993395;28;20476;-72
2024/02/07 08:39:12;;;;;;;10.40;3.20;;;8.50;66.80;;;;;;4993425;28;20034;-73
2024/02/07 08:41:40;;;;;;;7.38;3.05;;;8.40;67.10;;;;;;4993588;28;20033;-73
2024/02/07 08:44:06;;;;;;;10.70;3.30;;;8.40;66.80;;;;;;4993584;28;20034;-72
2024/02/07 08:46:32;;;;;;;7.45;2.88;;;8.50;67.40;;;;;;4993613;28;20018;-73
2024/02/07 08:48:57;;;;;;;10.00;2.97;;;8.40;67.10;;;;;;4976350;28;20029;-73
2024/02/07 08:51:23;;;;;;;5.85;2.65;;;8.40;67.70;;;;;;4957328;28;20392;-73
2024/02/07 08:53:49;;;;;;;12.98;3.00;;;8.50;67.10;;;;;;4954749;29;20031;-74
2024/02/07 08:56:14;;;;;;;8.32;2.47;;;8.50;67.70;;;;;;4954653;29;20035;-73
2024/02/07 08:58:40;;;;;;;9.35;2.47;;;8.50;67.20;;;;;;4937563;29;20035;-73
2024/02/07 09:01:06;;;;;;;8.88;2.35;;;8.50;66.70;;;;;;4954497;29;20027;-72
2024/02/07 09:03:32;;;;;;;4.90;2.40;;;8.50;67.10;;;;;;4954612;29;20063;-72
2024/02/07 09:05:58;;;;;;;9.05;2.22;;;8.40;68.20;;;;;;4954776;29;20074;-73
2024/02/07 09:08:23;;;;;;;4.53;1.80;;;8.40;68.80;;;;;;4954706;29;20472;-72
2024/02/07 09:10:49;;;;;;;11.55;2.58;;;8.30;69.30;;;;;;4954675;29;20122;-71
2024/02/07 09:13:14;;;;;;;8.57;2.30;;;8.30;69.50;;;;;;4954827;29;20552;-72
2024/02/07 09:15:40;;;;;;;6.60;1.95;;;8.30;69.50;;;;;;4954599;29;20047;-73
2024/02/07 09:18:05;;;;;;;5.50;2.42;;;8.30;69.70;;;;;;4954610;29;20086;-72
2024/02/07 09:20:31;;;;;;;11.38;3.28;;;8.30;69.30;;;;;;4954225;29;20489;-73
2024/02/07 09:22:56;;;;;;;7.53;2.50;;;8.30;69.60;;;;;;4954132;29;20027;-73
2024/02/07 09:25:22;;;;;;;7.32;2.78;;;8.30;69.20;;;;;;4954604;29;20039;-73
2024/02/07 09:27:47;;;;;;;6.97;2.53;;;8.30;69.20;;;;;;4954504;29;20027;-73
2024/02/07 09:30:13;;;;;;;7.20;2.97;;;8.30;69.60;;;;;;4954630;29;20114;-73
2024/02/07 09:32:42;;;;;;;6.97;2.58;;;8.30;69.20;;;;;;4954215;29;20381;-72
2024/02/07 09:35:08;;;;;;;6.07;2.72;;;8.30;68.80;;;;;;4954316;29;20503;-71
2024/02/07 09:37:33;;;;;;;7.68;2.72;;;8.40;69.50;;;;;;4954314;29;20038;-76
2024/02/07 09:39:59;;;;;;;5.43;3.03;;;8.40;68.60;;;;;;4954414;29;20027;-72
2024/02/07 09:42:25;;;;;;;9.93;2.42;;;8.40;68.70;;;;;;4954468;29;20024;-72
2024/02/07 09:44:52;;;;;;;5.95;2.75;;;8.40;68.10;;;;;;4954401;29;20432;-72
2024/02/07 09:47:19;;;;;;;8.50;2.30;;;8.50;68.00;;;;;;4954222;29;20027;-72
2024/02/07 09:49:46;;;;;;;7.00;2.53;;;8.50;68.20;;;;;;4954141;29;20042;-72
2024/02/07 09:52:14;;;;;;;5.32;2.70;;;8.50;68.00;;;;;;4954434;29;20039;-71
2024/02/07 09:54:46;;;;;;;5.57;2.28;;;8.60;68.00;;;;;;4954270;28;20051;-72
2024/02/07 09:57:13;;;;;;;5.43;2.47;;;8.60;67.10;;;;;;4940068;29;20086;-72
2024/02/07 09:59:39;;;;;;;7.75;3.13;;;8.60;66.60;;;;;;4958117;29;20118;-72
2024/02/07 10:02:09;;;;;;;6.18;2.50;;;8.70;67.10;;;;;;4958387;29;20047;-72
2024/02/07 10:04:40;;;;;;;5.68;2.35;;;8.70;67.40;;;;;;4957933;29;20467;-72
2024/02/07 10:07:10;;;;;;;5.65;2.05;;;8.80;67.60;;;;;;4957975;29;20099;-75
2024/02/07 10:09:37;;;;;;;8.75;2.88;;;8.80;67.60;;;;;;4957940;29;20117;-73
2024/02/07 10:12:07;;;;;;;5.70;2.10;;;8.80;67.60;;;;;;4957941;29;20050;-71
2024/02/07 10:14:33;;;;;;;9.60;2.63;;;8.80;68.60;;;;;;4957805;29;20438;-71
2024/02/07 10:16:58;;;;;;;7.35;2.30;;;8.70;68.00;;;;;;4957664;29;20046;-72
2024/02/07 10:19:25;;;;;;;9.05;2.80;;;8.70;67.70;;;;;;4940298;29;20038;-72
2024/02/07 10:21:51;;;;;;;8.90;2.42;;;8.70;68.20;;;;;;4957740;29;20019;-73
2024/02/07 10:24:16;;;;;;;5.20;2.25;;;8.70;68.50;;;;;;4940377;29;20126;-72
2024/02/07 10:26:46;;;;;;;7.60;2.13;;;8.70;68.70;;;;;;4957691;29;20110;-72
2024/02/07 10:29:14;;;;;;;6.78;2.40;;;8.60;69.80;;;;;;4940279;29;20125;-71
2024/02/07 10:31:39;;;;;;;8.98;2.50;;;8.50;70.40;;;;;;4957524;29;20503;-72
2024/02/07 10:34:16;;;;;;;7.47;3.22;;;8.40;71.80;;;;;;4957418;29;20039;-73
2024/02/07 10:36:42;;;;;;;4.43;2.70;;;8.30;72.60;;;;;;4957416;29;20019;-72
2024/02/07 10:39:09;;;;;;;7.32;3.03;;;8.30;73.80;;;;;;4957516;29;20025;-74
2024/02/07 10:41:34;;;;;;;9.27;3.20;;;8.40;73.00;;;;;;4957491;29;20520;-72
2024/02/07 10:44:10;;;;;;;5.95;2.83;;;8.30;73.00;;;;;;4957319;29;20114;-74
2024/02/07 10:46:35;;;;;;;;;;;8.40;72.40;;;;;;4957585;29;20388;-73
2024/02/07 10:49:01;;;;;;;;;;;8.40;72.10;;;;;;4940021;29;19914;-73
2024/02/07 10:51:31;;;;;;;10.45;3.40;;;8.40;72.50;;;;;;4957381;28;20149;-76
2024/02/07 10:54:03;;;;;;;7.43;2.40;;;8.40;72.60;;;;;;4957154;29;20034;-76
2024/02/07 10:56:36;;;;;;;9.75;3.22;;;8.30;73.40;;;;;;4939878;29;20031;-75
2024/02/07 10:59:02;;;;;;;5.95;3.10;;;8.30;73.40;;;;;;4957229;29;20472;-74
2024/02/07 11:01:29;;;;;;;9.25;3.15;;;8.30;75.00;;;;;;4956915;29;20037;-72
2024/02/07 11:03:57;;;;;;;7.03;2.50;;;8.20;74.80;;;;;;4962571;28;20043;-73
2024/02/07 11:06:24;;;;;;;8.40;3.53;;;8.20;74.80;;;;;;4957563;28;20107;-73
2024/02/07 11:08:51;;;;;;;8.02;2.80;;;8.20;75.10;;;;;;4957536;28;20023;-73
2024/02/07 11:11:20;;;;;;;9.30;3.45;;;8.20;75.50;;;;;;4957334;28;20026;-73
2024/02/07 11:13:47;;;;;;;6.53;2.70;;;8.20;75.50;;;;;;4958339;28;20030;-72
2024/02/07 11:16:13;;;;;;;8.07;2.95;;;8.30;75.80;;;;;;4958162;28;20631;-72
2024/02/07 11:18:38;;;;;;;9.93;3.25;;;8.40;75.50;;;;;;4975955;28;20102;-73
2024/02/07 11:21:05;;;;;;;6.57;3.13;;;8.30;74.70;;;;;;4974528;28;20089;-73
2024/02/07 11:23:36;;;;;;;5.55;2.97;;;8.40;74.50;;;;;;4975966;28;20115;-73
2024/02/07 11:26:02;;;;;;;11.50;3.45;;;8.30;74.90;;;;;;4975687;28;20034;-73
2024/02/07 11:28:28;;;;;;;7.35;2.60;;;8.40;74.90;;;;;;4958382;28;20062;-74
2024/02/07 11:30:57;;;;;;;9.43;3.75;;;8.40;74.90;;;;;;4958417;28;20030;-74
2024/02/07 11:33:22;;;;;;;7.90;3.03;;;8.50;74.70;;;;;;4975499;28;20349;-73
2024/02/07 11:35:48;;;;;;;10.45;3.00;;;8.60;73.60;;;;;;4975631;28;20035;-73
2024/02/07 11:38:18;;;;;;;10.30;2.90;;;8.60;73.80;;;;;;4975644;28;20030;-72
2024/02/07 11:40:44;;;;;;;4.60;2.03;;;8.60;73.10;;;;;;4975566;28;20498;-74
2024/02/07 11:43:20;;;;;;;9.55;3.45;;;8.70;73.60;;;;;;4957340;28;20563;-74
2024/02/07 11:45:47;;;;;;;6.35;2.85;;;8.70;72.80;;;;;;4958306;28;20496;-73
2024/02/07 11:48:20;;;;;;;7.25;2.92;;;8.70;72.90;;;;;;4958219;28;20034;-73
2024/02/07 11:50:47;;;;;;;5.25;2.38;;;8.80;72.70;;;;;;4958033;28;20031;-73
2024/02/07 11:53:20;;;;;;;6.22;2.38;;;8.90;72.10;;;;;;4975317;28;20503;-76
2024/02/07 11:55:47;;;;;;;5.32;2.80;;;9.00;70.20;;;;;;4957899;28;20042;-73
2024/02/07 11:58:16;;;;;;;7.15;2.33;;;9.00;71.20;;;;;;4957528;28;20027;-74
2024/02/07 12:00:42;;;;;;;6.03;2.55;;;9.10;69.70;;;;;;4975019;28;20093;-74
2024/02/07 12:03:15;;;;;;;6.65;2.33;;;9.00;69.70;;;;;;4974076;28;20023;-77
2024/02/07 12:05:42;;;;;;;5.18;2.30;;;9.30;69.90;;;;;;4975194;28;20142;-73
2024/02/07 12:08:09;;;;;;;5.20;2.35;;;9.60;68.90;;;;;;4974785;28;20027;-73
2024/02/07 12:10:34;;;;;;;6.47;2.78;;;9.70;67.80;;;;;;4957505;28;20031;-73
2024/02/07 12:13:00;;;;;;;7.65;2.65;;;9.80;67.50;;;;;;4974978;28;20027;-74
2024/02/07 12:15:29;;;;;;;5.53;2.92;;;9.70;69.00;;;;;;4974907;28;20042;-72
2024/02/07 12:17:58;;;;;;;6.57;2.58;;;9.70;68.10;;;;;;4957418;28;20181;-72
2024/02/07 12:20:29;;;;;;;4.20;2.03;;;9.70;67.20;;;;;;4974722;28;20081;-75
2024/02/07 12:22:59;;;;;;;7.45;2.45;;;9.70;66.80;;;;;;4975065;28;20065;-75
2024/02/07 12:25:24;;;;;;;5.95;2.75;;;10.00;66.20;;;;;;4975272;28;20035;-72
2024/02/07 12:27:50;;;;;;;6.85;2.30;;;10.30;66.50;;;;;;4974701;28;20030;-73
2024/02/07 12:30:15;;;;;;;5.00;2.35;;;10.20;65.60;;;;;;4974876;28;20035;-74
2024/02/07 12:32:41;;;;;;;7.47;2.25;;;10.10;66.00;;;;;;4975610;28;20471;-74
2024/02/07 12:35:07;;;;;;;6.50;2.38;;;9.90;66.80;;;;;;4957302;28;20030;-73
2024/02/07 12:37:34;;;;;;;4.65;2.15;;;9.60;67.10;;;;;;4974598;28;20162;-74
2024/02/07 12:40:00;;;;;;;6.95;2.63;;;9.40;68.30;;;;;;4974706;28;20033;-73
2024/02/07 12:42:25;;;;;;;5.07;2.10;;;9.40;68.80;;;;;;4975065;28;20098;-74
2024/02/07 12:44:52;;;;;;;8.27;2.72;;;9.20;69.60;;;;;;4974627;28;20107;-74
2024/02/07 12:47:23;;;;;;;5.10;2.72;;;9.20;70.10;;;;;;4974674;28;20049;-75
2024/02/07 12:49:50;;;;;;;6.50;2.42;;;9.20;69.90;;;;;;4974672;28;20023;-74
2024/02/07 12:52:16;;;;;;;7.10;2.42;;;9.20;70.60;;;;;;4957195;28;20375;-75
2024/02/07 12:54:44;;;;;;;5.25;2.28;;;9.20;70.00;;;;;;4957057;28;20027;-75
2024/02/07 12:57:23;;;;;;;9.13;2.38;;;9.30;70.10;;;;;;4957071;28;20027;-73
2024/02/07 12:59:50;;;;;;;6.00;2.00;;;9.40;70.00;;;;;;4974487;28;20097;-74
2024/02/07 13:02:16;;;;;;;5.20;2.22;;;9.50;69.10;;;;;;4974466;28;20085;-74
2024/02/07 13:04:42;;;;;;;6.93;2.28;;;9.40;68.50;;;;;;4957201;28;20038;-75
2024/02/07 13:07:11;;;;;;;3.70;1.73;;;9.50;68.00;;;;;;4974380;28;20019;-75
2024/02/07 13:09:37;;;;;;;5.40;1.77;;;9.50;68.90;;;;;;4974380;28;20023;-76
2024/02/07 13:12:03;;;;;;;3.90;1.58;;;9.60;66.80;;;;;;4974205;28;20432;-74
2024/02/07 13:14:29;;;;;;;5.25;2.03;;;9.80;66.20;;;;;;4957040;28;20023;-73
2024/02/07 13:16:55;;;;;;;6.22;1.83;;;10.00;65.70;;;;;;4973868;28;20093;-73
2024/02/07 13:19:21;;;;;;;3.03;1.52;;;10.10;65.10;;;;;;4974376;28;20026;-74
2024/02/07 13:21:46;;;;;;;2.97;1.50;;;10.50;63.70;;;;;;4973958;28;20030;-74
2024/02/07 13:24:15;;;;;;;7.15;2.13;;;10.70;62.50;;;;;;4973906;28;20045;-73
2024/02/07 13:26:40;;;;;;;5.75;2.05;;;10.70;61.90;;;;;;4973893;28;20023;-73
2024/02/07 13:29:06;;;;;;;3.38;1.60;;;10.60;62.30;;;;;;4974032;28;20434;-73
2024/02/07 13:31:32;;;;;;;8.00;2.22;;;10.30;62.90;;;;;;4974069;28;20030;-73
2024/02/07 13:33:58;;;;;;;8.80;2.13;;;10.10;63.80;;;;;;4973864;28;20023;-73
2024/02/07 13:36:24;;;;;;;9.00;2.08;;;9.90;64.70;;;;;;4973860;28;20027;-73
2024/02/07 13:38:49;;;;;;;8.15;1.85;;;9.80;64.80;;;;;;4973933;28;20023;-72
2024/02/07 13:41:19;;;;;;;6.35;2.47;;;9.60;65.70;;;;;;4973746;28;20030;-73
2024/02/07 13:43:45;;;;;;;7.90;2.63;;;9.60;66.00;;;;;;4973685;28;20427;-74
2024/02/07 13:46:11;;;;;;;5.35;2.35;;;9.40;66.70;;;;;;4973838;28;20037;-73
2024/02/07 13:48:38;;;;;;;8.73;2.63;;;9.40;66.90;;;;;;4973677;28;20376;-74
2024/02/07 13:51:05;;;;;;;7.28;2.60;;;9.40;66.90;;;;;;4974030;28;20027;-74
2024/02/07 13:53:30;;;;;;;8.88;2.60;;;9.50;66.40;;;;;;4974228;28;20029;-72
2024/02/07 13:55:57;;;;;;;7.20;2.40;;;9.50;66.50;;;;;;4973849;28;20098;-74
2024/02/07 13:58:23;;;;;;;6.55;2.70;;;9.50;65.80;;;;;;4973808;28;20026;-73
2024/02/07 14:00:49;;;;;;;9.60;2.88;;;9.60;66.40;;;;;;4973750;28;20019;-75